Time;durP1;ratioP1;P1;durP2;ratioP2;P2;SDS_P1;SDS_P2;PMS_P1;PMS_P2;Temp;Humidity;BMP_temperature;BMP_pressure;BME280_temperature;BME280_humidity;BME280_pressure;Samples;Min_cycle;Max_cycle;Signal;HPM_P1;HPM_P2
2022/05/11 00:00:19;;;;;;;4.88;4.20;;;16.30;91.60;;;;;;4997791;28;20463;-75
2022/05/11 00:02:45;;;;;;;4.65;3.83;;;16.30;91.80;;;;;;4993810;28;20034;-76
2022/05/11 00:05:17;;;;;;;10.00;4.72;;;16.40;92.00;;;;;;4997617;28;20096;-75
2022/05/11 00:07:43;;;;;;;3.92;3.53;;;16.30;92.20;;;;;;4993886;28;20036;-75
2022/05/11 00:10:12;;;;;;;7.23;4.07;;;16.40;92.30;;;;;;4997588;28;20022;-75
2022/05/11 00:12:45;;;;;;;4.25;3.75;;;16.30;92.00;;;;;;5008627;28;20264;-75
2022/05/11 00:15:22;;;;;;;5.05;3.85;;;16.30;92.00;;;;;;4997809;28;20022;-75
2022/05/11 00:17:51;;;;;;;4.93;4.15;;;16.40;92.20;;;;;;4993126;28;20026;-75
2022/05/11 00:20:19;;;;;;;4.82;4.03;;;16.30;92.20;;;;;;4997007;28;20053;-75
2022/05/11 00:22:45;;;;;;;6.95;4.10;;;16.40;92.50;;;;;;4993487;28;20017;-75
2022/05/11 00:25:15;;;;;;;6.30;4.10;;;16.30;92.50;;;;;;5012758;28;20029;-75
2022/05/11 00:27:41;;;;;;;4.40;3.95;;;16.30;92.50;;;;;;4993485;28;20018;-75
2022/05/11 00:30:09;;;;;;;6.35;3.92;;;16.40;92.70;;;;;;5011696;28;20030;-75
2022/05/11 00:32:37;;;;;;;6.10;4.03;;;16.40;92.70;;;;;;5011948;28;20037;-75
2022/05/11 00:35:05;;;;;;;7.82;3.90;;;16.30;93.00;;;;;;4996995;28;20057;-75
2022/05/11 00:37:31;;;;;;;4.50;4.05;;;16.30;92.90;;;;;;4995498;28;20026;-76
2022/05/11 00:39:58;;;;;;;3.78;3.47;;;16.30;92.90;;;;;;4992957;28;20588;-75
2022/05/11 00:42:30;;;;;;;4.75;3.72;;;16.30;93.00;;;;;;5012327;28;20088;-76
2022/05/11 00:45:00;;;;;;;4.97;3.80;;;16.30;92.90;;;;;;5008190;28;20026;-75
2022/05/11 00:47:39;;;;;;;4.90;4.00;;;16.20;92.90;;;;;;4997092;28;20476;-76
2022/05/11 00:50:23;;;;;;;7.30;3.88;;;16.10;93.00;;;;;;4996337;28;20021;-75
2022/05/11 00:53:11;;;;;;;4.97;4.30;;;16.10;93.30;;;;;;4993575;28;20029;-75
2022/05/11 00:55:42;;;;;;;7.15;3.97;;;16.10;93.60;;;;;;4991825;28;20103;-75
2022/05/11 00:58:14;;;;;;;5.40;3.90;;;16.10;93.80;;;;;;5013426;28;20032;-75
2022/05/11 01:00:45;;;;;;;4.80;4.13;;;16.10;93.70;;;;;;5010784;28;20101;-75
2022/05/11 01:03:25;;;;;;;4.88;3.97;;;16.00;93.60;;;;;;4997331;28;20631;-76
2022/05/11 01:06:02;;;;;;;5.03;4.50;;;16.00;93.60;;;;;;4991375;28;20041;-75
2022/05/11 01:08:34;;;;;;;5.10;4.15;;;16.00;93.70;;;;;;5012355;28;20014;-75
2022/05/11 01:11:03;;;;;;;6.13;4.28;;;16.00;93.80;;;;;;4989884;28;20029;-75
2022/05/11 01:13:33;;;;;;;4.30;3.90;;;15.90;93.70;;;;;;5010765;28;20112;-75
2022/05/11 01:16:01;;;;;;;5.00;4.32;;;15.90;93.90;;;;;;4993344;28;20037;-75
2022/05/11 01:18:29;;;;;;;7.22;3.97;;;15.90;94.00;;;;;;4997341;28;20093;-75
2022/05/11 01:20:55;;;;;;;4.78;4.20;;;15.90;94.10;;;;;;4992407;28;20022;-74
2022/05/11 01:23:32;;;;;;;6.60;4.35;;;15.80;94.10;;;;;;5012540;28;20026;-75
2022/05/11 01:26:00;;;;;;;6.65;4.07;;;15.80;94.20;;;;;;5007850;28;20025;-74
2022/05/11 01:28:31;;;;;;;5.18;3.53;;;15.80;94.10;;;;;;5012686;28;20025;-75
2022/05/11 01:31:08;;;;;;;4.35;3.80;;;15.90;94.00;;;;;;4992733;28;20727;-75
2022/05/11 01:33:37;;;;;;;;;;;15.90;94.10;;;;;;4995033;28;20022;-75
2022/05/11 01:36:34;;;;;;;5.53;3.90;;;15.90;94.20;;;;;;4995205;28;19909;-75
2022/05/11 01:39:05;;;;;;;4.88;3.92;;;15.80;94.20;;;;;;4989371;28;20022;-75
2022/05/11 01:41:42;;;;;;;4.82;3.53;;;15.80;94.20;;;;;;4996297;28;20433;-75
2022/05/11 01:44:11;;;;;;;;;;;15.80;94.00;;;;;;5013899;28;20010;-75
2022/05/11 01:46:39;;;;;;;4.90;3.88;;;15.80;94.10;;;;;;5000103;28;19944;-75
2022/05/11 01:49:10;;;;;;;6.45;3.90;;;15.80;94.10;;;;;;5015196;28;20106;-75
2022/05/11 01:51:38;;;;;;;4.38;3.97;;;15.80;94.30;;;;;;5014749;28;20018;-75
2022/05/11 01:54:05;;;;;;;4.20;3.65;;;15.70;94.40;;;;;;4999141;28;20037;-75
2022/05/11 01:56:31;;;;;;;4.07;3.67;;;15.70;94.60;;;;;;5001046;28;20437;-75
2022/05/11 01:58:58;;;;;;;6.40;4.72;;;15.70;94.50;;;;;;5011304;28;20025;-75
2022/05/11 02:01:27;;;;;;;5.50;4.47;;;15.70;94.40;;;;;;4999653;28;20518;-74
2022/05/11 02:03:53;;;;;;;6.03;3.83;;;15.70;94.50;;;;;;5011100;28;20111;-75
2022/05/11 02:09:05;;;;;;;7.65;4.47;;;15.60;94.60;;;;;;4997699;28;20029;-75
2022/05/11 02:11:32;;;;;;;5.28;4.18;;;15.50;94.80;;;;;;5000079;28;20010;-75
2022/05/11 02:14:02;;;;;;;4.30;3.67;;;15.50;94.90;;;;;;4996085;28;20069;-75
2022/05/11 02:16:34;;;;;;;4.80;3.95;;;15.50;95.10;;;;;;5000224;28;20049;-75
2022/05/11 02:19:18;;;;;;;5.50;3.47;;;15.50;95.10;;;;;;4992806;28;20921;-75
2022/05/11 02:21:46;;;;;;;5.90;3.72;;;15.50;95.10;;;;;;4995142;28;20068;-75
2022/05/11 02:24:18;;;;;;;4.00;3.60;;;15.50;95.10;;;;;;4999798;28;20148;-75
2022/05/11 02:26:44;;;;;;;5.38;4.15;;;15.40;95.10;;;;;;5010740;28;20383;-76
2022/05/11 02:29:11;;;;;;;5.97;4.03;;;15.40;95.20;;;;;;4999805;28;20032;-75
2022/05/11 02:31:39;;;;;;;3.75;3.40;;;15.40;95.20;;;;;;5014507;28;20025;-74
2022/05/11 02:34:06;;;;;;;4.85;4.13;;;15.30;95.20;;;;;;4996940;28;20018;-75
2022/05/11 02:36:36;;;;;;;7.78;3.80;;;15.30;95.20;;;;;;4999355;28;20018;-74
2022/05/11 02:39:02;;;;;;;4.63;3.63;;;15.20;95.40;;;;;;5009762;28;20153;-75
2022/05/11 02:41:28;;;;;;;5.82;4.20;;;15.20;95.50;;;;;;5013915;28;20476;-75
2022/05/11 02:44:02;;;;;;;;;;;15.20;95.60;;;;;;4995388;28;20021;-75
2022/05/11 02:46:29;;;;;;;4.90;4.15;;;15.20;95.70;;;;;;4999124;28;19927;-75
2022/05/11 02:48:55;;;;;;;;;;;15.20;95.80;;;;;;4994928;28;20540;-75
2022/05/11 02:51:22;;;;;;;4.90;4.18;;;15.10;95.80;;;;;;4998851;28;19905;-75
2022/05/11 02:53:49;;;;;;;5.85;3.90;;;15.10;95.90;;;;;;5010470;28;20045;-75
2022/05/11 02:56:16;;;;;;;;;;;15.10;96.00;;;;;;5014663;28;20021;-75
2022/05/11 02:58:43;;;;;;;4.82;4.22;;;15.10;96.10;;;;;;4995590;28;20052;-75
2022/05/11 03:01:08;;;;;;;;;;;15.10;96.20;;;;;;4998672;28;20434;-74
2022/05/11 03:03:35;;;;;;;5.45;4.63;;;15.10;96.30;;;;;;5013698;28;19984;-75
2022/05/11 03:06:05;;;;;;;;;;;15.00;96.50;;;;;;4993715;28;20728;-75
2022/05/11 03:08:38;;;;;;;6.65;4.65;;;15.00;96.60;;;;;;5011731;28;19909;-75
2022/05/11 03:11:17;;;;;;;4.95;4.35;;;15.00;96.50;;;;;;4993010;28;20081;-75
2022/05/11 03:13:43;;;;;;;5.45;4.63;;;15.00;96.60;;;;;;4995127;28;20022;-75
2022/05/11 03:16:08;;;;;;;5.78;4.63;;;15.00;96.80;;;;;;4997595;28;20039;-75
2022/05/11 03:18:41;;;;;;;6.72;4.85;;;15.00;96.90;;;;;;4998323;28;20025;-75
2022/05/11 03:21:12;;;;;;;5.72;4.90;;;15.00;97.00;;;;;;4994785;28;20411;-75
2022/05/11 03:23:39;;;;;;;6.65;5.00;;;15.00;97.10;;;;;;4997789;28;20103;-75
2022/05/11 03:26:05;;;;;;;;;;;15.00;97.10;;;;;;4994041;28;20121;-74
2022/05/11 03:28:30;;;;;;;6.00;4.88;;;15.00;97.10;;;;;;4997049;28;20007;-75
2022/05/11 03:30:56;;;;;;;6.00;4.67;;;15.00;97.20;;;;;;5006946;28;20044;-76
2022/05/11 03:36:09;;;;;;;10.23;5.30;;;15.00;97.30;;;;;;4994459;28;20288;-74
2022/05/11 03:38:36;;;;;;;6.72;5.55;;;15.00;97.30;;;;;;4998282;28;20017;-75
2022/05/11 03:41:03;;;;;;;7.43;5.05;;;15.00;97.60;;;;;;5008485;28;20010;-75
2022/05/11 03:43:36;;;;;;;8.40;5.45;;;15.10;97.60;;;;;;4998185;28;20028;-75
2022/05/11 03:46:02;;;;;;;6.82;4.75;;;15.10;97.50;;;;;;4990942;28;20029;-75
2022/05/11 03:48:32;;;;;;;7.97;5.43;;;15.10;97.40;;;;;;4998741;28;20036;-75
2022/05/11 03:51:01;;;;;;;7.28;5.18;;;15.20;97.60;;;;;;4993572;28;20717;-75
2022/05/11 03:53:31;;;;;;;6.10;5.03;;;15.20;97.70;;;;;;5012828;28;20037;-75
2022/05/11 03:55:58;;;;;;;6.93;5.22;;;15.20;97.50;;;;;;4993716;28;20049;-75
2022/05/11 03:58:30;;;;;;;8.88;5.95;;;15.30;97.60;;;;;;4997612;28;20034;-75
2022/05/11 04:00:57;;;;;;;6.35;5.00;;;15.40;97.60;;;;;;4993107;28;20021;-75
2022/05/11 04:03:22;;;;;;;6.43;4.70;;;15.40;97.30;;;;;;4997126;28;20021;-74
2022/05/11 04:05:51;;;;;;;4.70;4.10;;;15.50;97.20;;;;;;4996076;28;20088;-74
2022/05/11 04:08:19;;;;;;;4.25;3.72;;;15.60;96.70;;;;;;5011636;28;20260;-75
2022/05/11 04:10:44;;;;;;;4.10;3.50;;;15.70;95.50;;;;;;5010058;28;20049;-72
2022/05/11 04:13:10;;;;;;;5.03;4.17;;;15.80;94.80;;;;;;4991333;28;20034;-71
2022/05/11 04:15:38;;;;;;;6.38;4.00;;;15.90;95.50;;;;;;4996737;28;20029;-71
2022/05/11 04:18:04;;;;;;;6.07;4.50;;;16.00;95.70;;;;;;4990884;28;20438;-72
2022/05/11 04:20:30;;;;;;;5.22;3.70;;;16.10;95.70;;;;;;4995758;28;20056;-75
2022/05/11 04:22:56;;;;;;;4.80;4.30;;;16.10;95.60;;;;;;4992773;28;20076;-75
2022/05/11 04:25:23;;;;;;;4.13;3.72;;;16.20;95.50;;;;;;4997622;28;20088;-75
2022/05/11 04:27:50;;;;;;;5.70;3.65;;;16.30;95.30;;;;;;4996868;28;20482;-75
2022/05/11 04:30:19;;;;;;;6.10;4.05;;;16.40;95.50;;;;;;4994027;28;20101;-75
2022/05/11 04:32:44;;;;;;;6.28;4.68;;;16.50;95.30;;;;;;5011430;28;20037;-75
2022/05/11 04:35:10;;;;;;;6.10;4.37;;;16.60;94.50;;;;;;4990989;28;20499;-75
2022/05/11 04:37:36;;;;;;;8.25;4.68;;;16.70;94.20;;;;;;4995070;28;20300;-75
2022/05/11 04:40:10;;;;;;;5.53;4.75;;;16.70;94.10;;;;;;4990364;28;20396;-76
2022/05/11 04:42:36;;;;;;;7.97;5.30;;;16.90;94.00;;;;;;4996078;28;20088;-76
2022/05/11 04:45:04;;;;;;;7.72;5.45;;;17.00;94.00;;;;;;5005424;28;20053;-75
2022/05/11 04:47:30;;;;;;;6.78;4.90;;;17.10;93.40;;;;;;4996660;28;20117;-74
2022/05/11 04:49:58;;;;;;;5.97;5.15;;;17.20;93.40;;;;;;4992399;28;20118;-75
2022/05/11 04:52:26;;;;;;;6.70;5.70;;;17.20;93.20;;;;;;4998224;28;20030;-75
2022/05/11 04:54:52;;;;;;;9.40;5.65;;;17.30;93.00;;;;;;4997113;28;20139;-75
2022/05/11 04:57:19;;;;;;;7.50;5.60;;;17.40;93.10;;;;;;4994388;28;20022;-76
2022/05/11 04:59:46;;;;;;;7.88;5.43;;;17.60;92.20;;;;;;5010496;28;20018;-76
2022/05/11 05:02:19;;;;;;;7.40;5.40;;;17.70;92.10;;;;;;5007590;28;20942;-77
2022/05/11 05:04:45;;;;;;;8.57;5.93;;;17.80;92.30;;;;;;5012407;28;20080;-77
2022/05/11 05:07:12;;;;;;;8.00;5.28;;;17.90;92.00;;;;;;5007590;28;20032;-77
2022/05/11 05:09:43;;;;;;;7.72;5.90;;;18.10;91.90;;;;;;4995850;28;20511;-76
2022/05/11 05:12:12;;;;;;;7.97;5.60;;;18.20;91.90;;;;;;4992659;28;20026;-76
2022/05/11 05:14:38;;;;;;;8.35;5.55;;;18.30;91.50;;;;;;4996840;28;20030;-76
2022/05/11 05:17:07;;;;;;;;;;;18.40;91.10;;;;;;5008683;28;20374;-75
2022/05/11 05:19:42;;;;;;;10.43;6.22;;;18.60;90.90;;;;;;5016142;28;20000;-74
2022/05/11 05:22:09;;;;;;;9.35;6.82;;;18.90;90.60;;;;;;4994836;28;20026;-75
2022/05/11 05:24:39;;;;;;;9.70;6.90;;;19.00;90.40;;;;;;5016140;28;20052;-75
2022/05/11 05:27:05;;;;;;;10.38;7.22;;;19.10;90.30;;;;;;4996592;28;20025;-75
2022/05/11 05:32:20;;;;;;;10.85;7.15;;;19.50;89.40;;;;;;4997825;28;20426;-75
2022/05/11 05:34:48;;;;;;;9.30;7.10;;;19.70;88.60;;;;;;4996167;28;20086;-74
2022/05/11 05:37:17;;;;;;;8.73;7.18;;;19.90;88.30;;;;;;4995987;28;20813;-75
2022/05/11 05:39:44;;;;;;;10.32;7.60;;;20.00;87.90;;;;;;5015903;28;20033;-75
2022/05/11 05:42:22;;;;;;;9.10;6.80;;;20.10;86.50;;;;;;5010963;28;20029;-75
2022/05/11 05:44:51;;;;;;;11.73;7.60;;;20.30;86.70;;;;;;5001247;28;20628;-75
2022/05/11 05:47:17;;;;;;;11.10;8.38;;;20.50;86.20;;;;;;4996336;28;20030;-76
2022/05/11 05:49:51;;;;;;;12.10;8.25;;;20.70;84.70;;;;;;4999865;28;20045;-75
2022/05/11 05:52:19;;;;;;;11.13;8.30;;;21.00;85.00;;;;;;4996427;28;20092;-76
2022/05/11 05:54:47;;;;;;;12.50;8.63;;;21.40;83.20;;;;;;5015876;28;20026;-75
2022/05/11 05:57:17;;;;;;;15.07;9.00;;;21.80;81.60;;;;;;5011260;28;20026;-76
2022/05/11 05:59:43;;;;;;;14.45;8.85;;;22.20;79.10;;;;;;5014955;28;20021;-76
2022/05/11 06:02:13;;;;;;;;;;;22.60;79.00;;;;;;5011271;28;20672;-76
2022/05/11 06:04:43;;;;;;;13.77;9.13;;;23.40;77.30;;;;;;4997948;28;19928;-76
2022/05/11 06:07:11;;;;;;;10.15;7.93;;;24.80;73.80;;;;;;4993359;28;20083;-75
2022/05/11 06:09:50;;;;;;;16.40;8.88;;;26.80;68.90;;;;;;5014200;28;20469;-76
2022/05/11 06:12:19;;;;;;;11.52;8.32;;;28.90;63.50;;;;;;5010536;28;20589;-76
2022/05/11 06:14:45;;;;;;;10.20;7.97;;;30.10;60.00;;;;;;5014698;28;20022;-76
2022/05/11 06:17:20;;;;;;;11.50;7.07;;;31.20;56.10;;;;;;5010886;28;20864;-76
2022/05/11 06:19:49;;;;;;;15.70;7.87;;;32.10;53.50;;;;;;5000270;28;20024;-76
2022/05/11 06:22:17;;;;;;;11.18;6.55;;;32.40;52.30;;;;;;4995453;28;20033;-76
2022/05/11 06:24:44;;;;;;;9.43;6.30;;;33.40;50.10;;;;;;5014494;28;20022;-77
2022/05/11 06:27:30;;;;;;;7.35;5.72;;;33.70;49.60;;;;;;5010717;28;20109;-76
2022/05/11 06:29:58;;;;;;;11.60;4.88;;;34.50;46.90;;;;;;4996269;28;20021;-76
2022/05/11 06:32:25;;;;;;;5.88;4.22;;;34.90;46.10;;;;;;4998975;28;20111;-76
2022/05/11 06:34:54;;;;;;;6.78;4.63;;;35.00;45.00;;;;;;4999656;28;20026;-76
2022/05/11 06:37:22;;;;;;;5.93;5.10;;;35.20;44.60;;;;;;4996405;28;20033;-76
2022/05/11 06:39:56;;;;;;;6.72;4.53;;;35.00;44.40;;;;;;4998358;28;20109;-77
2022/05/11 06:42:27;;;;;;;6.05;3.80;;;34.70;44.10;;;;;;4996937;28;20494;-76
2022/05/11 06:44:54;;;;;;;5.72;3.42;;;34.70;44.10;;;;;;4998788;28;20030;-76
2022/05/11 06:47:20;;;;;;;4.88;3.50;;;34.50;44.30;;;;;;4995520;28;20615;-76
2022/05/11 06:49:46;;;;;;;5.07;2.80;;;34.30;44.20;;;;;;4997913;28;20033;-76
2022/05/11 06:52:14;;;;;;;3.75;2.60;;;34.20;44.20;;;;;;4993752;28;20148;-76
2022/05/11 07:00:14;;;;;;;3.17;2.47;;;33.60;44.20;;;;;;4993750;28;20563;-75
2022/05/11 07:02:40;;;;;;;3.70;2.30;;;33.20;45.30;;;;;;5013769;28;20026;-76
2022/05/11 07:05:07;;;;;;;5.75;2.30;;;33.90;44.40;;;;;;5009258;28;20026;-76
2022/05/11 07:07:36;;;;;;;4.00;2.28;;;34.60;43.70;;;;;;4996178;28;20510;-77
2022/05/11 07:10:06;;;;;;;2.92;2.35;;;35.20;42.30;;;;;;4991991;28;20022;-77
2022/05/11 07:12:46;;;;;;;4.93;2.20;;;35.40;41.70;;;;;;4996771;28;20018;-77
2022/05/11 07:15:13;;;;;;;4.78;2.00;;;35.30;41.80;;;;;;4993555;28;20033;-77
2022/05/11 07:17:49;;;;;;;3.00;2.50;;;35.70;41.30;;;;;;4998781;28;20038;-77
2022/05/11 07:20:22;;;;;;;3.58;2.10;;;36.00;40.80;;;;;;5009049;28;20021;-77
2022/05/11 07:22:50;;;;;;;4.95;2.20;;;35.90;40.50;;;;;;4998360;28;20026;-77
2022/05/11 07:25:24;;;;;;;5.38;2.58;;;35.80;40.40;;;;;;4993790;28;20348;-77
2022/05/11 07:27:57;;;;;;;5.28;2.35;;;35.90;40.40;;;;;;4999279;28;20049;-77
2022/05/11 07:30:33;;;;;;;7.13;2.88;;;36.10;40.00;;;;;;4995799;28;20399;-76
2022/05/11 07:33:01;;;;;;;4.43;2.40;;;36.00;39.60;;;;;;4991809;28;20033;-76
2022/05/11 07:35:32;;;;;;;3.38;2.20;;;35.20;39.50;;;;;;4998556;28;20022;-77
2022/05/11 07:37:59;;;;;;;7.32;2.95;;;35.10;40.30;;;;;;4996700;28;20640;-76
2022/05/11 07:40:26;;;;;;;4.32;2.40;;;35.60;40.90;;;;;;4996902;28;20010;-77
2022/05/11 07:43:01;;;;;;;4.18;3.03;;;36.00;39.80;;;;;;4997538;28;20053;-77
2022/05/11 07:45:27;;;;;;;3.03;2.70;;;36.20;39.90;;;;;;4998636;28;20014;-77
2022/05/11 07:47:59;;;;;;;2.95;2.22;;;36.10;40.10;;;;;;4993585;28;20391;-78
2022/05/11 07:50:25;;;;;;;9.60;2.28;;;36.50;39.90;;;;;;4997479;28;20084;-78
2022/05/11 07:52:54;;;;;;;4.45;2.13;;;36.70;39.30;;;;;;4994551;28;20033;-77
2022/05/11 07:55:24;;;;;;;3.22;2.60;;;36.80;38.90;;;;;;5012744;28;20022;-77
2022/05/11 08:00:37;;;;;;;4.18;2.55;;;37.10;39.20;;;;;;4992180;28;20076;-77
2022/05/11 08:03:03;;;;;;;4.35;2.72;;;37.70;39.30;;;;;;4989180;28;20022;-77
2022/05/11 08:05:30;;;;;;;3.58;2.60;;;38.10;38.40;;;;;;5012367;28;20369;-77
2022/05/11 08:08:03;;;;;;;4.53;2.58;;;37.30;38.00;;;;;;5012836;28;20102;-77
2022/05/11 08:10:44;;;;;;;4.50;2.45;;;36.80;39.10;;;;;;4996069;28;20100;-77
2022/05/11 08:13:12;;;;;;;3.17;2.35;;;36.30;38.40;;;;;;4993501;28;20102;-77
2022/05/11 08:15:43;;;;;;;3.33;2.38;;;36.50;39.10;;;;;;5011947;28;20029;-76
2022/05/11 08:18:10;;;;;;;5.25;2.50;;;36.60;39.00;;;;;;5008324;28;20032;-77
2022/05/11 08:20:46;;;;;;;4.90;2.67;;;36.90;38.80;;;;;;4997261;28;20345;-77
2022/05/11 08:23:13;;;;;;;3.63;2.70;;;37.50;37.70;;;;;;5007958;28;21423;-77
2022/05/11 08:25:42;;;;;;;4.50;2.88;;;37.30;38.20;;;;;;4993836;28;20025;-77
2022/05/11 08:28:21;;;;;;;2.63;2.42;;;37.90;37.70;;;;;;5008498;28;20030;-76
2022/05/11 08:33:37;;;;;;;2.97;2.50;;;37.90;38.00;;;;;;4993775;28;20108;-77
2022/05/11 08:36:14;;;;;;;5.78;2.58;;;39.10;37.50;;;;;;4995572;28;20014;-77
2022/05/11 08:38:44;;;;;;;4.57;2.92;;;39.20;37.10;;;;;;4991464;28;20855;-76
2022/05/11 08:41:26;;;;;;;5.18;3.00;;;38.60;36.60;;;;;;4991114;28;20026;-76
2022/05/11 08:44:02;;;;;;;3.95;2.85;;;38.40;37.10;;;;;;4996000;28;21705;-76
2022/05/11 08:46:34;;;;;;;4.18;2.67;;;37.40;37.80;;;;;;4997800;28;20022;-76
2022/05/11 08:49:04;;;;;;;8.05;2.80;;;36.80;37.40;;;;;;4996457;28;20036;-76
2022/05/11 08:51:37;;;;;;;7.68;2.90;;;36.50;38.20;;;;;;4993464;28;20064;-76
2022/05/11 08:54:15;;;;;;;3.55;3.00;;;36.60;38.10;;;;;;4999465;28;20014;-76
2022/05/11 08:56:45;;;;;;;5.65;3.15;;;36.30;38.00;;;;;;4995440;28;20033;-76
2022/05/11 08:59:18;;;;;;;3.08;2.63;;;35.70;38.10;;;;;;5016627;28;20072;-76
2022/05/11 09:02:01;;;;;;;3.70;2.83;;;35.00;38.10;;;;;;4997097;28;20422;-76
2022/05/11 09:04:50;;;;;;;5.85;2.90;;;34.90;39.00;;;;;;5014192;28;20029;-76
2022/05/11 09:07:16;;;;;;;4.82;2.50;;;34.40;39.70;;;;;;4997311;28;20021;-76
2022/05/11 09:09:47;;;;;;;8.10;2.70;;;34.60;40.20;;;;;;5015851;28;20053;-76
2022/05/11 09:12:17;;;;;;;4.35;2.50;;;34.70;39.20;;;;;;4997143;28;20034;-77
2022/05/11 09:14:52;;;;;;;6.13;2.88;;;35.00;40.00;;;;;;5016117;28;20029;-77
2022/05/11 09:17:27;;;;;;;3.65;2.67;;;35.50;37.60;;;;;;4997199;28;20353;-76
2022/05/11 09:20:11;;;;;;;3.42;2.40;;;35.80;37.80;;;;;;5015536;28;20037;-76
2022/05/11 09:22:40;;;;;;;4.40;2.60;;;37.00;37.00;;;;;;4999608;28;20026;-76
2022/05/11 09:25:20;;;;;;;3.00;2.47;;;37.30;36.80;;;;;;5011593;28;20029;-77
2022/05/11 09:27:49;;;;;;;6.22;2.83;;;38.00;36.00;;;;;;5000040;28;20040;-77
2022/05/11 09:30:25;;;;;;;3.15;2.40;;;38.10;35.20;;;;;;4995523;28;20022;-76
2022/05/11 09:33:13;;;;;;;3.53;2.88;;;37.80;36.50;;;;;;4996269;28;20026;-76
2022/05/11 09:35:40;;;;;;;2.90;2.60;;;36.60;36.70;;;;;;4995842;28;20053;-76
2022/05/11 09:38:16;;;;;;;4.60;2.40;;;35.40;37.40;;;;;;4995953;28;20060;-76
2022/05/11 09:41:06;;;;;;;4.68;2.42;;;34.70;38.40;;;;;;5000102;28;20030;-76
2022/05/11 09:43:36;;;;;;;3.53;2.17;;;35.20;38.20;;;;;;5014722;28;20014;-76
2022/05/11 09:46:17;;;;;;;2.80;2.30;;;36.00;37.20;;;;;;4997692;28;20510;-77
2022/05/11 09:49:13;;;;;;;4.43;2.72;;;36.80;37.30;;;;;;5015759;28;20034;-76
2022/05/11 09:51:39;;;;;;;3.83;2.70;;;37.80;35.60;;;;;;5010351;28;20065;-77
2022/05/11 09:54:21;;;;;;;2.78;2.30;;;38.30;35.10;;;;;;4997881;28;20098;-77
2022/05/11 09:57:03;;;;;;;2.88;2.63;;;38.30;36.00;;;;;;4995451;28;20025;-76
2022/05/11 09:59:38;;;;;;;2.55;2.13;;;37.80;35.30;;;;;;5013535;28;20025;-76
2022/05/11 10:02:22;;;;;;;4.28;2.55;;;37.50;35.00;;;;;;4998007;28;20097;-76
2022/05/11 10:05:01;;;;;;;2.90;2.20;;;37.60;35.20;;;;;;4994520;28;20033;-77
2022/05/11 10:07:32;;;;;;;2.75;2.40;;;37.90;35.70;;;;;;4995469;28;20030;-77
2022/05/11 10:10:05;;;;;;;3.30;2.75;;;38.10;35.10;;;;;;4999155;28;20637;-76
2022/05/11 10:12:37;;;;;;;2.50;2.30;;;38.60;34.80;;;;;;4994026;28;20026;-76
2022/05/11 10:24:29;;;;;;;2.70;2.42;;;35.50;35.00;;;;;;4995290;28;20092;-79
2022/05/11 10:27:13;;;;;;;2.33;2.13;;;34.00;36.00;;;;;;5013866;28;20050;-79
2022/05/11 10:30:16;;;;;;;2.50;2.30;;;33.80;36.10;;;;;;5012521;28;20112;-78
2022/05/11 10:33:02;;;;;;;4.75;2.60;;;33.90;36.20;;;;;;4997737;28;20029;-79
2022/05/11 10:35:46;;;;;;;2.85;2.30;;;33.70;37.20;;;;;;5010802;28;20034;-79
2022/05/11 10:38:20;;;;;;;2.90;2.17;;;33.60;35.90;;;;;;5013850;28;20030;-80
2022/05/11 10:41:07;;;;;;;2.55;2.35;;;34.30;35.00;;;;;;4997895;28;20026;-80
2022/05/11 10:43:58;;;;;;;2.38;2.20;;;35.10;34.70;;;;;;5009229;28;20014;-78
2022/05/11 10:47:04;;;;;;;4.28;2.45;;;35.50;34.60;;;;;;4993798;28;20030;-79
2022/05/11 10:49:53;;;;;;;2.83;2.42;;;35.80;34.30;;;;;;4992601;28;20026;-79
2022/05/11 10:52:51;;;;;;;2.75;2.45;;;35.80;34.30;;;;;;4999097;28;20053;-79
2022/05/11 10:55:59;;;;;;;2.60;2.40;;;35.10;34.20;;;;;;4998919;28;20073;-78
2022/05/11 10:59:07;;;;;;;3.45;2.40;;;34.70;35.50;;;;;;5009573;28;20046;-79
2022/05/11 11:02:08;;;;;;;3.15;2.20;;;34.10;36.00;;;;;;4993357;28;20408;-77
2022/05/11 11:04:59;;;;;;;2.67;2.35;;;33.40;36.50;;;;;;4992640;28;20165;-77
2022/05/11 11:08:02;;;;;;;2.63;2.40;;;32.70;37.60;;;;;;5010225;28;20025;-77
2022/05/11 11:10:36;;;;;;;2.83;2.58;;;32.30;37.60;;;;;;4986738;28;20120;-77
2022/05/11 11:13:23;;;;;;;2.67;2.45;;;31.80;37.50;;;;;;5008492;28;20022;-77
2022/05/11 11:15:52;;;;;;;2.65;2.45;;;31.90;37.40;;;;;;4996533;28;20112;-79
2022/05/11 11:18:28;;;;;;;2.85;2.50;;;31.60;37.70;;;;;;4993920;28;20097;-78
2022/05/11 11:21:01;;;;;;;4.78;2.65;;;31.10;38.60;;;;;;5011924;28;20028;-77
2022/05/11 11:23:31;;;;;;;3.78;2.55;;;30.90;39.30;;;;;;5010405;28;20105;-77
2022/05/11 11:26:04;;;;;;;7.43;2.90;;;30.80;38.50;;;;;;4998151;28;20021;-77
2022/05/11 11:28:45;;;;;;;2.92;2.65;;;30.60;40.00;;;;;;4991189;28;20037;-77
2022/05/11 11:31:13;;;;;;;3.80;2.70;;;30.50;39.40;;;;;;4996413;28;20036;-77
2022/05/11 11:34:01;;;;;;;3.30;2.35;;;30.30;39.40;;;;;;4994910;28;20063;-77
2022/05/11 11:36:34;;;;;;;2.75;2.55;;;30.20;39.10;;;;;;5010319;28;20029;-78
2022/05/11 11:39:11;;;;;;;3.58;2.72;;;30.00;40.20;;;;;;5011839;28;20038;-77
2022/05/11 11:41:45;;;;;;;3.20;2.80;;;30.00;39.70;;;;;;4991763;28;20743;-79
2022/05/11 11:44:26;;;;;;;4.93;2.80;;;30.00;39.00;;;;;;4998226;28;20101;-78
2022/05/11 11:46:52;;;;;;;3.00;2.70;;;30.10;41.40;;;;;;5013376;28;20033;-78
2022/05/11 11:49:21;;;;;;;3.30;2.90;;;30.20;40.80;;;;;;4993589;28;20018;-78
2022/05/11 11:51:52;;;;;;;2.88;2.60;;;30.30;41.20;;;;;;5012528;28;20080;-76
2022/05/11 11:54:43;;;;;;;3.55;2.35;;;30.40;39.80;;;;;;4992990;28;20018;-77
2022/05/11 11:57:20;;;;;;;2.42;2.22;;;30.10;40.30;;;;;;5012190;28;20053;-79
2022/05/11 11:59:56;;;;;;;3.42;2.58;;;29.70;40.00;;;;;;4997299;28;20026;-79
2022/05/11 12:02:28;;;;;;;3.88;2.63;;;29.60;40.20;;;;;;4993447;28;20026;-80
2022/05/11 12:05:11;;;;;;;3.65;2.85;;;29.60;40.60;;;;;;4997593;28;20029;-79
2022/05/11 12:15:01;;;;;;;3.20;2.90;;;29.40;40.00;;;;;;4993024;28;20156;-76
2022/05/11 12:16:56;;;;;;;4.78;2.80;;;29.60;41.10;;;;;;4992316;28;20048;-77
2022/05/11 12:19:29;;;;;;;3.55;2.83;;;29.70;41.00;;;;;;4993562;28;20034;-77
2022/05/11 12:22:39;;;;;;;5.05;2.70;;;29.60;41.30;;;;;;5011343;28;20810;-76
2022/05/11 12:25:20;;;;;;;2.72;2.53;;;29.50;40.00;;;;;;4979198;28;20057;-77
2022/05/11 12:27:48;;;;;;;4.10;2.55;;;29.50;41.40;;;;;;4994510;28;20375;-77
2022/05/11 12:30:24;;;;;;;3.95;2.58;;;29.70;40.40;;;;;;4984870;28;20111;-81
2022/05/11 12:32:52;;;;;;;;;;;29.50;40.30;;;;;;4995664;28;20022;-80
2022/05/11 12:35:25;;;;;;;4.18;2.90;;;29.30;40.60;;;;;;5008439;28;19913;-83
2022/05/11 12:38:02;;;;;;;5.40;2.90;;;29.20;42.00;;;;;;5000272;28;20115;-79
2022/05/11 12:40:50;;;;;;;4.35;2.80;;;29.20;42.50;;;;;;4993721;28;20583;-84
2022/05/11 12:43:33;;;;;;;3.55;2.72;;;29.50;42.90;;;;;;4994164;28;20014;-83
2022/05/11 12:46:18;;;;;;;4.90;3.20;;;29.50;41.10;;;;;;5008716;28;20041;-84
2022/05/11 12:48:57;;;;;;;4.85;2.60;;;29.20;42.00;;;;;;4989793;28;20018;-83
2022/05/11 12:51:29;;;;;;;3.55;2.85;;;29.20;43.30;;;;;;4993583;28;20088;-81
2022/05/11 12:54:01;;;;;;;3.58;3.00;;;29.20;42.80;;;;;;4994750;28;20075;-82
2022/05/11 12:56:31;;;;;;;3.58;2.90;;;29.10;41.60;;;;;;4992079;28;20064;-84
2022/05/11 12:59:24;;;;;;;4.32;3.33;;;29.20;43.10;;;;;;5011222;28;20024;-86
2022/05/11 13:01:59;;;;;;;3.00;2.70;;;29.10;43.30;;;;;;4992097;28;20049;-80
2022/05/11 13:04:26;;;;;;;3.72;2.65;;;29.00;41.80;;;;;;5008204;28;20018;-84
2022/05/11 13:06:59;;;;;;;3.78;3.28;;;29.10;42.20;;;;;;5010682;28;20053;-82
2022/05/11 13:09:33;;;;;;;3.88;2.63;;;29.10;41.50;;;;;;4987058;28;20418;-82
2022/05/11 13:12:04;;;;;;;4.63;3.08;;;29.20;41.70;;;;;;4995126;28;20025;-84
2022/05/11 13:14:51;;;;;;;3.13;2.67;;;29.20;41.60;;;;;;5007397;28;20076;-77
2022/05/11 13:17:26;;;;;;;7.40;3.92;;;29.20;41.10;;;;;;4994029;28;20029;-76
2022/05/11 13:20:12;;;;;;;3.17;2.88;;;29.30;41.50;;;;;;4993574;28;20038;-77
2022/05/11 13:22:51;;;;;;;2.75;2.50;;;29.40;41.60;;;;;;5007290;28;21050;-76
2022/05/11 13:25:38;;;;;;;3.72;2.42;;;29.40;41.70;;;;;;4993278;28;20022;-76
2022/05/11 13:28:14;;;;;;;5.07;2.60;;;29.30;40.50;;;;;;4996264;28;20029;-76
2022/05/11 13:30:44;;;;;;;3.33;2.50;;;29.40;40.70;;;;;;4991408;28;20018;-76
2022/05/11 13:33:33;;;;;;;2.85;2.65;;;29.50;40.00;;;;;;5010977;28;20482;-76
2022/05/11 13:36:20;;;;;;;2.95;2.70;;;29.50;40.70;;;;;;4995479;28;20088;-76
2022/05/11 13:39:39;;;;;;;4.57;3.10;;;29.50;41.60;;;;;;5011580;28;20033;-76
2022/05/11 13:42:28;;;;;;;4.07;3.00;;;29.50;41.50;;;;;;4993817;28;20091;-76
2022/05/11 13:45:08;;;;;;;3.72;2.60;;;29.60;41.90;;;;;;5012252;28;20026;-76
2022/05/11 13:50:27;;;;;;;3.53;2.70;;;29.50;41.70;;;;;;4994278;28;20578;-76
2022/05/11 13:53:13;;;;;;;3.65;2.97;;;29.30;43.70;;;;;;4999161;28;20152;-76
2022/05/11 13:55:57;;;;;;;4.30;3.00;;;29.30;41.50;;;;;;4985934;28;20034;-75